createdAt,value
2022-08-07T00:02:39.659Z,21.08
2022-08-07T00:04:54.828Z,21.11
2022-08-07T00:07:21.724Z,21.09
2022-08-07T00:09:59.274Z,21.12
2022-08-07T00:12:35.402Z,21.10
2022-08-07T00:15:22.258Z,21.04
2022-08-07T00:17:58.997Z,21.09
2022-08-07T00:20:29.991Z,21.10
2022-08-07T00:23:02.936Z,21.01
2022-08-07T00:25:41.231Z,21.12
2022-08-07T00:28:08.839Z,21.07
2022-08-07T00:30:37.772Z,21.08
2022-08-07T00:33:05.110Z,21.09
2022-08-07T00:35:36.610Z,20.99
2022-08-07T00:38:04.419Z,21.00
2022-08-07T00:40:39.724Z,21.03
2022-08-07T00:43:10.786Z,21.04
2022-08-07T00:45:57.006Z,20.96
2022-08-07T00:48:24.900Z,20.97
2022-08-07T00:50:58.313Z,20.90
2022-08-07T00:53:27.072Z,20.91
2022-08-07T00:56:13.898Z,20.87
2022-08-07T00:58:46.900Z,20.84
2022-08-07T01:01:15.730Z,20.84
2022-08-07T01:03:55.981Z,20.79
2022-08-07T01:06:26.086Z,20.74
2022-08-07T01:08:55.492Z,20.74
2022-08-07T01:12:23.515Z,20.75
2022-08-07T01:14:10.436Z,20.73
2022-08-07T01:16:37.814Z,20.69
2022-08-07T01:19:18.222Z,20.66
2022-08-07T01:21:49.556Z,20.54
2022-08-07T01:24:22.269Z,20.57
2022-08-07T01:26:52.007Z,20.51
2022-08-07T01:29:21.958Z,20.48
2022-08-07T01:31:50.101Z,20.46
2022-08-07T01:34:20.210Z,20.48
2022-08-07T01:36:57.997Z,20.50
2022-08-07T01:39:40.687Z,20.47
2022-08-07T01:42:39.361Z,20.42
2022-08-07T01:45:04.000Z,20.30
2022-08-07T01:48:20.113Z,20.34
2022-08-07T01:50:28.637Z,20.36
2022-08-07T01:52:58.640Z,20.36
2022-08-07T01:55:40.073Z,20.34
2022-08-07T01:58:27.755Z,20.30
2022-08-07T02:01:09.810Z,20.30
2022-08-07T02:04:11.655Z,20.23
2022-08-07T02:06:41.284Z,20.26
2022-08-07T02:09:51.617Z,20.18
2022-08-07T02:12:17.750Z,20.01
2022-08-07T02:14:49.000Z,20.06
2022-08-07T02:17:27.380Z,19.94
2022-08-07T02:20:05.551Z,19.94
2022-08-07T02:22:41.218Z,19.88
2022-08-07T02:25:17.247Z,19.82
2022-08-07T02:27:52.243Z,19.79
2022-08-07T02:30:20.260Z,19.73
2022-08-07T02:33:08.855Z,19.70
2022-08-07T02:36:30.032Z,19.64
2022-08-07T02:38:31.961Z,19.66
2022-08-07T02:41:01.218Z,19.59
2022-08-07T02:43:31.469Z,19.52
2022-08-07T02:46:02.172Z,19.49
2022-08-07T02:48:30.824Z,19.46
2022-08-07T02:51:04.267Z,19.42
2022-08-07T02:53:39.093Z,19.20
2022-08-07T02:56:20.967Z,19.30
2022-08-07T02:58:54.028Z,19.29
2022-08-07T03:01:35.799Z,19.28
2022-08-07T03:04:12.779Z,19.19
2022-08-07T03:06:45.808Z,19.19
2022-08-07T03:09:14.003Z,19.12
2022-08-07T03:11:52.440Z,18.99
2022-08-07T03:14:26.228Z,18.94
2022-08-07T03:16:56.636Z,18.94
2022-08-07T03:19:24.817Z,19.04
2022-08-07T03:21:56.808Z,18.98
2022-08-07T03:24:27.777Z,19.02
2022-08-07T03:27:00.772Z,18.98
2022-08-07T03:29:36.862Z,18.77
2022-08-07T03:32:13.391Z,18.98
2022-08-07T03:35:00.889Z,18.98
2022-08-07T03:37:46.455Z,19.01
2022-08-07T03:40:22.307Z,18.97
2022-08-07T03:42:52.180Z,18.82
2022-08-07T03:45:31.059Z,18.86
2022-08-07T03:47:59.291Z,18.98
2022-08-07T03:50:28.748Z,18.80
2022-08-07T03:52:59.850Z,18.80
2022-08-07T03:55:58.142Z,18.76
2022-08-07T03:59:04.641Z,18.93
2022-08-07T04:01:11.545Z,18.81
2022-08-07T04:03:53.169Z,18.66
2022-08-07T04:06:36.167Z,18.64
2022-08-07T04:09:08.484Z,18.74
2022-08-07T04:12:27.870Z,18.68
2022-08-07T04:14:38.925Z,18.75
2022-08-07T04:17:19.855Z,18.69
2022-08-07T04:19:52.481Z,18.72
2022-08-07T04:22:28.627Z,18.73
2022-08-07T04:24:58.053Z,18.57
2022-08-07T04:27:26.612Z,18.65
2022-08-07T04:29:58.361Z,18.55
2022-08-07T04:32:34.057Z,18.61
2022-08-07T04:35:05.973Z,18.66
2022-08-07T04:38:00.998Z,18.60
2022-08-07T04:40:22.655Z,18.62
2022-08-07T04:43:01.641Z,18.67
2022-08-07T04:46:04.542Z,18.37
2022-08-07T04:49:14.977Z,18.68
2022-08-07T04:51:49.581Z,18.71
2022-08-07T04:54:30.810Z,18.69
2022-08-07T04:58:11.765Z,18.77
2022-08-07T05:01:14.659Z,18.79
2022-08-07T05:04:18.145Z,18.83
2022-08-07T05:07:09.657Z,18.82
2022-08-07T05:09:58.132Z,18.61
2022-08-07T05:13:01.410Z,18.78
2022-08-07T05:15:42.590Z,18.89
2022-08-07T05:18:29.993Z,18.97
2022-08-07T05:21:04.580Z,19.26
2022-08-07T05:23:40.161Z,19.31
2022-08-07T05:26:24.683Z,19.47
2022-08-07T05:28:56.475Z,19.50
2022-08-07T05:31:34.531Z,19.49
2022-08-07T05:34:05.484Z,19.43
2022-08-07T05:36:44.836Z,19.28
2022-08-07T05:40:13.722Z,19.79
2022-08-07T05:42:12.429Z,19.58
2022-08-07T05:44:46.464Z,19.68
2022-08-07T05:47:20.927Z,19.68
2022-08-07T05:50:06.517Z,19.74
2022-08-07T05:52:33.407Z,19.86
2022-08-07T05:55:07.051Z,20.04
2022-08-07T05:57:42.319Z,20.17
2022-08-07T06:00:16.283Z,20.07
2022-08-07T06:02:48.799Z,20.30
2022-08-07T06:05:18.264Z,20.35
2022-08-07T06:08:13.406Z,20.52
2022-08-07T06:10:39.929Z,20.50
2022-08-07T06:13:13.441Z,20.85
2022-08-07T06:15:43.345Z,20.74
2022-08-07T06:18:13.911Z,21.17
2022-08-07T06:20:50.903Z,21.08
2022-08-07T06:24:37.638Z,21.28
2022-08-07T06:26:19.417Z,21.27
2022-08-07T06:28:56.910Z,20.80
2022-08-07T06:31:38.473Z,21.26
2022-08-07T06:34:13.356Z,21.20
2022-08-07T06:36:40.229Z,21.49
2022-08-07T06:40:16.505Z,21.52
2022-08-07T06:42:10.435Z,21.44
2022-08-07T06:44:40.150Z,21.74
2022-08-07T06:47:12.285Z,22.10
2022-08-07T06:49:51.644Z,22.14
2022-08-07T06:52:31.705Z,22.31
2022-08-07T06:55:33.578Z,22.51
2022-08-07T06:58:02.676Z,22.93
2022-08-07T07:00:36.817Z,23.23
2022-08-07T07:03:10.828Z,23.72
2022-08-07T07:06:03.343Z,23.63
2022-08-07T07:08:31.140Z,24.00
2022-08-07T07:11:13.037Z,24.02
2022-08-07T07:13:57.447Z,24.10
2022-08-07T07:16:45.109Z,24.33
2022-08-07T07:19:55.149Z,24.55
2022-08-07T07:22:35.616Z,24.82
2022-08-07T07:25:02.974Z,24.88
2022-08-07T07:28:01.940Z,24.96
2022-08-07T07:30:40.023Z,25.13
2022-08-07T07:33:14.286Z,25.28
2022-08-07T07:36:03.811Z,25.18
2022-08-07T07:38:34.710Z,25.25
2022-08-07T07:41:08.846Z,25.26
2022-08-07T07:44:14.766Z,24.45
2022-08-07T07:46:37.730Z,25.23
2022-08-07T07:50:32.770Z,25.05
2022-08-07T07:52:12.741Z,24.95
2022-08-07T07:54:50.691Z,24.83
2022-08-07T07:57:29.043Z,24.88
2022-08-07T08:00:12.119Z,25.65
2022-08-07T08:03:05.216Z,25.62
2022-08-07T08:05:50.455Z,26.03
2022-08-07T08:08:34.603Z,26.06
2022-08-07T08:11:13.526Z,26.84
2022-08-07T08:13:53.909Z,26.60
2022-08-07T08:16:38.107Z,25.27
2022-08-07T08:20:16.302Z,25.96
2022-08-07T08:22:32.804Z,25.31
2022-08-07T08:25:27.028Z,25.26
2022-08-07T08:28:16.706Z,25.10
2022-08-07T08:30:56.967Z,24.98
2022-08-07T08:33:33.144Z,24.61
2022-08-07T08:36:01.736Z,24.65
2022-08-07T08:38:41.407Z,25.30
2022-08-07T08:41:58.750Z,24.93
2022-08-07T08:44:58.928Z,24.90
2022-08-07T08:47:30.859Z,24.90
2022-08-07T08:50:39.790Z,25.37
2022-08-07T08:53:31.555Z,25.54
2022-08-07T08:56:03.567Z,26.09
2022-08-07T08:58:54.564Z,26.57
2022-08-07T09:01:40.105Z,26.53
2022-08-07T09:04:26.086Z,26.43
2022-08-07T09:07:13.612Z,25.90
2022-08-07T09:10:16.489Z,25.98
2022-08-07T09:13:09.315Z,26.44
2022-08-07T09:16:24.812Z,26.55
2022-08-07T09:19:50.931Z,27.45
2022-08-07T09:24:29.385Z,27.43
2022-08-07T09:25:29.465Z,27.40
2022-08-07T09:28:06.073Z,27.72
2022-08-07T09:31:05.388Z,27.08
2022-08-07T09:34:02.213Z,26.84
2022-08-07T09:36:46.837Z,26.47
2022-08-07T09:39:55.024Z,26.14
2022-08-07T09:42:52.890Z,25.77
2022-08-07T09:47:56.135Z,26.55
2022-08-07T09:50:02.769Z,27.76
2022-08-07T09:52:52.490Z,27.92
2022-08-07T09:56:03.135Z,27.99
2022-08-07T09:58:58.405Z,27.85
2022-08-07T10:01:52.325Z,28.26
2022-08-07T10:04:57.193Z,27.96
2022-08-07T10:08:04.512Z,28.15
2022-08-07T10:11:17.297Z,28.99
2022-08-07T10:14:12.822Z,28.48
2022-08-07T10:17:14.427Z,27.90
2022-08-07T10:20:12.963Z,27.78
2022-08-07T10:24:05.650Z,26.79
2022-08-07T10:26:51.671Z,27.97
2022-08-07T10:29:51.558Z,28.54
2022-08-07T10:33:05.247Z,29.45
2022-08-07T10:36:10.941Z,28.50
2022-08-07T10:39:14.178Z,28.99
2022-08-07T10:42:21.190Z,28.74
2022-08-07T10:45:45.365Z,27.48
2022-08-07T10:49:10.198Z,27.32
2022-08-07T10:52:13.128Z,28.29
2022-08-07T10:54:53.180Z,27.58
2022-08-07T10:58:05.963Z,28.46
2022-08-07T11:00:50.538Z,28.60
2022-08-07T11:03:52.820Z,27.72
2022-08-07T11:06:58.031Z,27.53
2022-08-07T11:10:07.162Z,28.59
2022-08-07T11:12:40.460Z,29.17
2022-08-07T11:15:26.292Z,29.30
2022-08-07T11:18:43.972Z,29.60
2022-08-07T11:21:20.780Z,29.49
2022-08-07T11:24:14.053Z,29.94
2022-08-07T11:27:00.442Z,30.37
2022-08-07T11:29:47.396Z,30.70
2022-08-07T11:32:25.402Z,30.26
2022-08-07T11:34:59.193Z,30.75
2022-08-07T11:37:57.880Z,30.31
2022-08-07T11:41:01.999Z,30.23
2022-08-07T11:44:10.727Z,30.73
2022-08-07T11:47:07.557Z,31.15
2022-08-07T11:50:44.635Z,30.58
2022-08-07T11:54:01.121Z,30.47
2022-08-07T11:57:00.476Z,29.80
2022-08-07T12:00:19.049Z,29.58
2022-08-07T12:03:44.364Z,29.24
2022-08-07T12:06:50.744Z,29.85
2022-08-07T12:09:35.806Z,29.39
2022-08-07T12:12:20.147Z,29.84
2022-08-07T12:15:00.582Z,30.13
2022-08-07T12:17:59.506Z,30.11
2022-08-07T12:20:49.265Z,30.27
2022-08-07T12:24:07.364Z,29.96
2022-08-07T12:26:49.508Z,29.24
2022-08-07T12:29:38.420Z,30.03
2022-08-07T12:32:21.198Z,31.20
2022-08-07T12:34:55.604Z,31.12
2022-08-07T12:37:28.382Z,31.43
2022-08-07T12:40:43.955Z,31.54
2022-08-07T12:43:10.298Z,31.02
2022-08-07T12:45:56.930Z,31.50
2022-08-07T12:48:53.113Z,32.05
2022-08-07T12:51:46.651Z,32.72
2022-08-07T12:54:54.545Z,31.22
2022-08-07T12:57:29.987Z,31.95
2022-08-07T13:00:12.817Z,32.37
2022-08-07T13:04:02.483Z,32.90
2022-08-07T13:07:02.291Z,33.45
2022-08-07T13:10:21.488Z,33.69
2022-08-07T13:13:47.278Z,32.78
2022-08-07T13:16:32.692Z,31.87
2022-08-07T13:19:50.629Z,32.12
2022-08-07T13:22:32.316Z,31.23
2022-08-07T13:25:23.911Z,31.74
2022-08-07T13:28:13.764Z,31.21
2022-08-07T13:31:46.124Z,31.15
2022-08-07T13:34:48.467Z,32.46
2022-08-07T13:37:33.647Z,32.75
2022-08-07T13:40:35.389Z,33.00
2022-08-07T13:43:13.645Z,31.55
2022-08-07T13:46:11.415Z,32.74
2022-08-07T13:48:38.688Z,31.64
2022-08-07T13:51:27.967Z,31.22
2022-08-07T13:54:02.085Z,32.05
2022-08-07T13:56:35.341Z,32.15
2022-08-07T13:59:31.354Z,32.59
2022-08-07T14:02:21.529Z,32.84
2022-08-07T14:05:08.696Z,31.98
2022-08-07T14:08:00.865Z,31.88
2022-08-07T14:10:41.790Z,31.56
2022-08-07T14:13:16.658Z,32.14
2022-08-07T14:16:05.986Z,32.89
2022-08-07T14:18:50.022Z,33.39
2022-08-07T14:22:03.446Z,33.90
2022-08-07T14:24:41.298Z,33.28
2022-08-07T14:27:16.220Z,32.69
2022-08-07T14:30:12.344Z,32.90
2022-08-07T14:32:57.389Z,32.69
2022-08-07T14:35:45.827Z,33.35
2022-08-07T14:38:26.411Z,33.06
2022-08-07T14:41:04.266Z,33.48
2022-08-07T14:43:55.732Z,32.64
2022-08-07T14:46:30.690Z,31.29
2022-08-07T14:49:17.498Z,31.32
2022-08-07T14:52:03.708Z,30.53
2022-08-07T14:54:35.893Z,30.17
2022-08-07T14:57:18.869Z,30.99
2022-08-07T15:00:05.568Z,31.36
2022-08-07T15:02:37.039Z,32.12
2022-08-07T15:05:19.606Z,31.58
2022-08-07T15:07:51.885Z,32.28
2022-08-07T15:10:26.068Z,32.08
2022-08-07T15:12:58.645Z,32.37
2022-08-07T15:15:56.840Z,31.95
2022-08-07T15:18:36.540Z,32.08
2022-08-07T15:21:58.642Z,31.37
2022-08-07T15:27:05.743Z,30.93
2022-08-07T15:32:40.094Z,30.04
2022-08-07T15:35:19.018Z,29.87
2022-08-07T15:38:30.410Z,29.64
2022-08-07T15:41:00.264Z,29.06
2022-08-07T15:43:55.988Z,29.04
2022-08-07T15:46:31.699Z,29.20
2022-08-07T15:54:41.352Z,28.58
2022-08-07T15:57:28.138Z,28.35
2022-08-07T16:00:06.353Z,27.79
2022-08-07T16:02:46.675Z,28.12
2022-08-07T16:05:20.041Z,28.05
2022-08-07T16:08:32.551Z,27.61
2022-08-07T16:10:48.886Z,27.72
2022-08-07T16:13:57.606Z,27.00
2022-08-07T16:16:48.205Z,27.37
2022-08-07T16:19:42.653Z,27.23
2022-08-07T16:22:55.532Z,27.53
2022-08-07T16:25:55.803Z,26.96
2022-08-07T16:30:05.843Z,27.03
2022-08-07T16:31:51.708Z,26.85
2022-08-07T16:34:41.879Z,26.51
2022-08-07T16:38:05.293Z,26.37
2022-08-07T16:41:02.191Z,26.29
2022-08-07T16:44:05.913Z,26.59
2022-08-07T16:47:16.678Z,26.79
2022-08-07T16:50:38.777Z,26.51
2022-08-07T16:54:01.159Z,26.53
2022-08-07T16:56:33.206Z,26.65
2022-08-07T16:59:45.839Z,26.21
2022-08-07T17:03:04.992Z,26.18
2022-08-07T17:06:26.715Z,26.39
2022-08-07T17:09:10.573Z,26.24
2022-08-07T17:12:04.349Z,26.24
2022-08-07T17:15:04.311Z,26.26
2022-08-07T17:18:18.252Z,26.29
2022-08-07T17:20:46.676Z,26.14
2022-08-07T17:23:22.799Z,26.03
2022-08-07T17:26:23.583Z,25.78
2022-08-07T17:30:12.583Z,25.80
2022-08-07T17:32:31.080Z,25.73
2022-08-07T17:35:50.146Z,25.81
2022-08-07T17:38:57.105Z,25.84
2022-08-07T17:42:02.332Z,25.80
2022-08-07T17:44:34.141Z,25.73
2022-08-07T17:47:37.726Z,25.72
2022-08-07T17:50:22.501Z,25.66
2022-08-07T17:53:06.147Z,25.50
2022-08-07T17:55:55.795Z,25.41
2022-08-07T17:58:56.834Z,25.36
2022-08-07T18:01:56.718Z,25.25
2022-08-07T18:04:35.288Z,25.16
2022-08-07T18:07:22.625Z,25.06
2022-08-07T18:10:06.371Z,24.98
2022-08-07T18:13:01.156Z,24.86
2022-08-07T18:15:41.322Z,24.75
2022-08-07T18:18:47.013Z,24.73
2022-08-07T18:21:58.512Z,24.55
2022-08-07T18:24:36.015Z,24.46
2022-08-07T18:27:25.072Z,24.35
2022-08-07T18:30:33.079Z,24.25
2022-08-07T18:33:55.638Z,24.07
2022-08-07T18:36:40.110Z,23.94
2022-08-07T18:40:08.406Z,23.88
2022-08-07T18:42:21.797Z,23.75
2022-08-07T18:45:44.276Z,23.68
2022-08-07T18:50:30.073Z,23.59
2022-08-07T18:52:35.451Z,23.34
2022-08-07T18:54:51.533Z,23.22
2022-08-07T18:57:40.444Z,23.13
2022-08-07T19:00:34.443Z,22.90
2022-08-07T19:03:38.737Z,22.91
2022-08-07T19:06:16.760Z,22.87
2022-08-07T19:08:55.746Z,22.89
2022-08-07T19:12:03.965Z,22.89
2022-08-07T19:16:02.972Z,22.88
2022-08-07T19:18:12.840Z,22.89
2022-08-07T19:21:08.366Z,22.87
2022-08-07T19:23:58.327Z,22.85
2022-08-07T19:27:01.947Z,22.83
2022-08-07T19:31:02.071Z,22.78
2022-08-07T19:32:28.772Z,22.67
2022-08-07T19:35:09.861Z,22.56
2022-08-07T19:37:55.427Z,22.57
2022-08-07T19:40:31.874Z,22.60
2022-08-07T19:43:09.221Z,22.62
2022-08-07T19:46:01.161Z,22.50
2022-08-07T19:48:44.495Z,22.43
2022-08-07T19:51:51.755Z,22.35
2022-08-07T19:54:33.818Z,22.29
2022-08-07T19:58:03.045Z,22.23
2022-08-07T19:59:57.258Z,22.23
2022-08-07T20:02:35.793Z,22.21
2022-08-07T20:05:10.066Z,22.21
2022-08-07T20:07:48.214Z,22.16
2022-08-07T20:10:35.307Z,22.18
2022-08-07T20:13:23.685Z,22.14
2022-08-07T20:15:57.705Z,22.09
2022-08-07T20:18:32.205Z,22.08
2022-08-07T20:21:14.830Z,22.05
2022-08-07T20:24:00.139Z,22.06
2022-08-07T20:26:45.049Z,22.01
2022-08-07T20:29:49.323Z,22.01
2022-08-07T20:32:11.230Z,21.97
2022-08-07T20:34:52.900Z,21.90
2022-08-07T20:37:57.681Z,21.86
2022-08-07T20:40:31.459Z,21.81
2022-08-07T20:43:03.004Z,21.76
2022-08-07T20:46:26.657Z,21.72
2022-08-07T20:48:28.550Z,21.70
2022-08-07T20:51:03.399Z,21.64
2022-08-07T20:54:04.543Z,21.56
2022-08-07T20:56:29.388Z,21.46
2022-08-07T20:59:01.918Z,21.39
2022-08-07T21:01:45.281Z,21.30
2022-08-07T21:04:22.706Z,21.23
2022-08-07T21:06:55.382Z,21.16
2022-08-07T21:09:35.596Z,21.09
2022-08-07T21:12:29.231Z,21.06
2022-08-07T21:15:03.657Z,21.06
2022-08-07T21:18:04.019Z,21.02
2022-08-07T21:20:29.539Z,21.00
2022-08-07T21:23:08.771Z,20.94
2022-08-07T21:25:58.439Z,20.95
2022-08-07T21:28:50.224Z,20.88
2022-08-07T21:31:49.765Z,20.78
2022-08-07T21:34:46.172Z,20.70
2022-08-07T21:37:21.820Z,20.65
2022-08-07T21:40:18.035Z,20.52
2022-08-07T21:43:01.205Z,20.44
2022-08-07T21:46:08.386Z,20.35
2022-08-07T21:48:55.730Z,20.28
2022-08-07T21:51:50.990Z,20.21
2022-08-07T21:55:06.283Z,20.12
2022-08-07T21:57:53.604Z,20.08
2022-08-07T22:00:25.705Z,19.99
2022-08-07T22:03:30.665Z,19.92
2022-08-07T22:06:30.285Z,19.88
2022-08-07T22:09:08.426Z,19.83
2022-08-07T22:12:05.144Z,19.84
2022-08-07T22:14:44.032Z,19.92
2022-08-07T22:17:42.700Z,19.93
2022-08-07T22:20:40.104Z,19.92
2022-08-07T22:23:41.226Z,19.93
2022-08-07T22:26:30.967Z,19.88
2022-08-07T22:29:15.527Z,19.81
2022-08-07T22:32:06.219Z,19.75
2022-08-07T22:34:58.911Z,19.70
2022-08-07T22:38:05.379Z,19.67
2022-08-07T22:40:36.198Z,19.63
2022-08-07T22:43:16.994Z,19.59
2022-08-07T22:46:47.236Z,19.61
2022-08-07T22:49:57.116Z,19.62
2022-08-07T22:53:00.589Z,19.64
2022-08-07T22:55:45.789Z,19.60
2022-08-07T22:58:43.028Z,19.59
2022-08-07T23:01:49.724Z,19.56
2022-08-07T23:04:36.140Z,19.57
2022-08-07T23:07:41.713Z,19.58
2022-08-07T23:10:37.379Z,19.58
2022-08-07T23:14:15.386Z,19.64
2022-08-07T23:17:02.707Z,19.65
2022-08-07T23:20:05.297Z,19.66
2022-08-07T23:22:32.535Z,19.65
2022-08-07T23:25:48.702Z,19.60
2022-08-07T23:28:48.966Z,19.51
2022-08-07T23:34:19.443Z,19.45
2022-08-07T23:35:22.484Z,19.31
2022-08-07T23:38:36.799Z,19.13
2022-08-07T23:41:47.609Z,19.11
2022-08-07T23:44:39.449Z,19.12
2022-08-07T23:47:16.611Z,19.13
2022-08-07T23:50:35.409Z,19.16
2022-08-07T23:53:50.200Z,19.19
2022-08-07T23:56:41.695Z,19.17
